createdAt,value
2024-04-22T00:00:51.100Z,80.9
2024-04-22T00:02:07.298Z,81
2024-04-22T00:03:23.493Z,81
2024-04-22T00:04:39.691Z,81.4
2024-04-22T00:05:56.130Z,81.5
2024-04-22T00:07:12.050Z,81.2
2024-04-22T00:08:28.247Z,81.4
2024-04-22T00:09:44.476Z,81.5
2024-04-22T00:11:00.636Z,81.6
2024-04-22T00:12:15.860Z,81.7
2024-04-22T00:13:32.338Z,81.5
2024-04-22T00:14:48.280Z,81.5
2024-04-22T00:16:04.724Z,81.8
2024-04-22T00:17:20.672Z,81.8
2024-04-22T00:18:36.868Z,81.9
2024-04-22T00:19:52.087Z,82.1
2024-04-22T00:21:08.283Z,82.2
2024-04-22T00:22:24.727Z,82.4
2024-04-22T00:23:40.674Z,82.4
2024-04-22T00:24:56.831Z,82.6
2024-04-22T00:26:13.321Z,82.6
2024-04-22T00:27:29.229Z,82.7
2024-04-22T00:28:45.419Z,82.5
2024-04-22T00:30:01.620Z,82.7
2024-04-22T00:31:18.104Z,82.6
2024-04-22T00:32:34.022Z,82.8
2024-04-22T00:33:50.494Z,83
2024-04-22T00:35:06.694Z,82.6
2024-04-22T00:36:21.653Z,83.2
2024-04-22T00:37:38.113Z,83.1
2024-04-22T00:38:54.000Z,83.4
2024-04-22T00:40:10.241Z,83.6
2024-04-22T00:41:26.685Z,83.4
2024-04-22T00:42:42.876Z,83.1
2024-04-22T00:43:58.830Z,81.9
2024-04-22T00:45:15.003Z,81.6
2024-04-22T00:46:31.194Z,81.4
2024-04-22T00:47:47.420Z,81.4
2024-04-22T00:49:03.870Z,81.9
2024-04-22T00:50:20.064Z,82.2
2024-04-22T00:51:35.983Z,81.8
2024-04-22T00:52:51.190Z,80.9
2024-04-22T00:54:07.664Z,79.9
2024-04-22T00:55:23.866Z,80.8
2024-04-22T00:56:40.060Z,80.5
2024-04-22T00:57:55.972Z,80.5
2024-04-22T00:59:12.456Z,81.4
2024-04-22T01:00:28.652Z,81.7
2024-04-22T01:01:44.596Z,81.7
2024-04-22T01:03:01.045Z,81.8
2024-04-22T01:04:16.950Z,82
2024-04-22T01:05:33.185Z,82.3
2024-04-22T01:06:49.357Z,82.3
2024-04-22T01:08:05.825Z,82.7
2024-04-22T01:09:20.789Z,82.3
2024-04-22T01:10:36.986Z,82.3
2024-04-22T01:11:53.156Z,82.5
2024-04-22T01:13:09.379Z,82.8
2024-04-22T01:14:25.576Z,83.2
2024-04-22T01:15:42.015Z,83.6
2024-04-22T01:16:58.214Z,83.8
2024-04-22T01:18:14.136Z,83.8
2024-04-22T01:19:30.613Z,83.6
2024-04-22T01:20:46.557Z,83.2
2024-04-22T01:22:02.753Z,82.9
2024-04-22T01:23:18.927Z,82.8
2024-04-22T01:24:35.145Z,82.7
2024-04-22T01:25:50.359Z,82.7
2024-04-22T01:27:06.555Z,82.7
2024-04-22T01:28:22.729Z,82.7
2024-04-22T01:29:39.189Z,82.9
2024-04-22T01:30:55.143Z,83
2024-04-22T01:32:11.582Z,83.1
2024-04-22T01:33:27.536Z,83.2
2024-04-22T01:34:43.732Z,83.8
2024-04-22T01:35:59.905Z,83.8
2024-04-22T01:37:16.088Z,83.8
2024-04-22T01:38:32.321Z,83.9
2024-04-22T01:39:48.760Z,83.8
2024-04-22T01:41:04.713Z,83.9
2024-04-22T01:42:19.925Z,83.8
2024-04-22T01:43:36.122Z,84
2024-04-22T01:44:52.286Z,84
2024-04-22T01:46:08.514Z,84
2024-04-22T01:47:24.683Z,83.8
2024-04-22T01:48:40.907Z,84.3
2024-04-22T01:49:57.355Z,84.6
2024-04-22T01:51:13.548Z,84.7
2024-04-22T01:52:29.462Z,85
2024-04-22T01:53:45.945Z,85
2024-04-22T01:54:52.000Z,84.8
2024-04-22T01:56:18.086Z,84.7
2024-04-22T01:57:34.283Z,84.5
2024-04-22T01:58:49.740Z,84.6
2024-04-22T02:00:05.940Z,84.8
2024-04-22T02:01:21.864Z,84.9
2024-04-22T02:02:38.333Z,84.7
2024-04-22T02:03:54.282Z,84.7
2024-04-22T02:05:10.727Z,84.9
2024-04-22T02:06:26.926Z,84.9
2024-04-22T02:07:42.872Z,84.9
2024-04-22T02:08:59.069Z,85
2024-04-22T02:10:15.512Z,85.1
2024-04-22T02:11:31.707Z,85.2
2024-04-22T02:12:47.898Z,85.1
2024-04-22T02:13:54.000Z,85.1
2024-04-22T02:15:19.057Z,85.1
2024-04-22T02:16:35.231Z,85.1
2024-04-22T02:17:51.697Z,85.1
2024-04-22T02:19:07.615Z,85.1
2024-04-22T02:20:24.089Z,85.1
2024-04-22T02:21:30.000Z,85
2024-04-22T02:22:56.222Z,84.8
2024-04-22T02:24:12.417Z,84.7
2024-04-22T02:25:28.611Z,84.7
2024-04-22T02:26:44.806Z,84.7
2024-04-22T02:28:01.249Z,84.9
2024-04-22T02:29:08.000Z,84.8
2024-04-22T02:30:33.389Z,84.8
2024-04-22T02:31:48.599Z,84.6
2024-04-22T02:33:05.041Z,84.3
2024-04-22T02:34:20.987Z,84.1
2024-04-22T02:35:37.432Z,84
2024-04-22T02:36:53.617Z,84.1
2024-04-22T02:38:09.823Z,84.1
2024-04-22T02:39:25.764Z,84.2
2024-04-22T02:40:32.000Z,84.3
2024-04-22T02:41:58.152Z,84.3
2024-04-22T02:43:14.346Z,84.4
2024-04-22T02:44:30.540Z,84.2
2024-04-22T02:45:46.990Z,84.4
2024-04-22T02:47:03.179Z,84.4
2024-04-22T02:48:18.398Z,84.2
2024-04-22T02:49:34.333Z,84.4
2024-04-22T02:50:50.781Z,84.1
2024-04-22T02:52:06.721Z,84
2024-04-22T02:53:22.915Z,84.1
2024-04-22T02:54:39.109Z,83.9
2024-04-22T02:55:55.304Z,83.8
2024-04-22T02:57:11.497Z,83.8
2024-04-22T02:58:27.946Z,83.7
2024-04-22T02:59:43.887Z,83.5
2024-04-22T03:01:00.333Z,83.8
2024-04-22T03:02:16.275Z,83.7
2024-04-22T03:03:32.469Z,83.7
2024-04-22T03:04:47.680Z,83.4
2024-04-22T03:05:54.000Z,83
2024-04-22T03:07:20.068Z,82.7
2024-04-22T03:08:36.262Z,82.5
2024-04-22T03:09:52.456Z,82.8
2024-04-22T03:11:08.901Z,82.9
2024-04-22T03:12:24.845Z,82.8
2024-04-22T03:13:41.288Z,82.9
2024-04-22T03:14:48.000Z,83
2024-04-22T03:16:13.679Z,82.9
2024-04-22T03:17:29.874Z,82.8
2024-04-22T03:18:46.069Z,82.7
2024-04-22T03:20:02.010Z,82
2024-04-22T03:21:17.220Z,82.3
2024-04-22T03:22:33.416Z,82.2
2024-04-22T03:23:49.859Z,82.7
2024-04-22T03:25:06.062Z,83
2024-04-22T03:26:21.999Z,83.4
2024-04-22T03:27:38.193Z,83.5
2024-04-22T03:28:54.644Z,83.5
2024-04-22T03:30:01.000Z,83.2
2024-04-22T03:31:27.024Z,83.3
2024-04-22T03:32:43.228Z,83.5
2024-04-22T03:33:59.165Z,83.5
2024-04-22T03:35:15.359Z,83.3
2024-04-22T03:36:31.553Z,83
2024-04-22T03:37:46.764Z,83.2
2024-04-22T03:38:53.000Z,82.9
2024-04-22T03:40:19.152Z,83.2
2024-04-22T03:41:35.346Z,83.2
2024-04-22T03:42:51.540Z,83.2
2024-04-22T03:44:07.976Z,83.2
2024-04-22T03:45:23.928Z,83.3
2024-04-22T03:46:40.122Z,83
2024-04-22T03:47:56.316Z,83.2
2024-04-22T03:49:12.764Z,83.2
2024-04-22T03:50:28.704Z,83
2024-04-22T03:51:44.899Z,82.9
2024-04-22T03:53:01.093Z,83
2024-04-22T03:54:16.548Z,82.7
2024-04-22T03:55:32.498Z,82.7
2024-04-22T03:56:48.693Z,82.7
2024-04-22T03:59:11.000Z,82.8
2024-04-22T04:00:37.275Z,82.7
2024-04-22T04:01:53.721Z,82.7
2024-04-22T04:03:09.663Z,82.7
2024-04-22T04:04:26.109Z,82.7
2024-04-22T04:05:42.052Z,82.5
2024-04-22T04:06:58.490Z,82.5
2024-04-22T04:08:14.440Z,82.5
2024-04-22T04:09:30.886Z,82.5
2024-04-22T04:10:45.846Z,82.8
2024-04-22T04:12:02.300Z,82.6
2024-04-22T04:13:18.233Z,82.3
2024-04-22T04:14:34.681Z,82.5
2024-04-22T04:15:50.621Z,82.1
2024-04-22T04:16:57.000Z,82.1
2024-04-22T04:18:23.253Z,82.3
2024-04-22T04:19:39.204Z,82
2024-04-22T04:20:55.397Z,81.9
2024-04-22T04:22:11.591Z,81.7
2024-04-22T04:23:18.000Z,81.7
2024-04-22T04:24:43.980Z,82
2024-04-22T04:26:00.173Z,81.7
2024-04-22T04:27:15.632Z,81.5
2024-04-22T04:28:31.579Z,81.6
2024-04-22T04:29:48.024Z,81.6
2024-04-22T04:31:03.967Z,81.4
2024-04-22T04:32:20.415Z,81.6
2024-04-22T04:33:36.609Z,81.3
2024-04-22T04:34:51.819Z,81.4
2024-04-22T04:36:07.764Z,81.1
2024-04-22T04:37:23.958Z,81.2
2024-04-22T04:38:40.151Z,81.3
2024-04-22T04:39:56.593Z,81.4
2024-04-22T04:41:12.539Z,81.4
2024-04-22T04:42:19.000Z,81
2024-04-22T04:43:44.927Z,81.2
2024-04-22T04:45:01.121Z,81.2
2024-04-22T04:46:17.315Z,81.3
2024-04-22T04:47:33.758Z,81.5
2024-04-22T04:48:49.703Z,81.4
2024-04-22T04:50:06.153Z,81.6
2024-04-22T04:51:21.108Z,81.7
2024-04-22T04:52:37.550Z,81.5
2024-04-22T04:53:53.495Z,81.2
2024-04-22T04:55:09.935Z,81.1
2024-04-22T04:56:25.883Z,81.5
2024-04-22T04:57:42.330Z,81.8
2024-04-22T04:58:58.271Z,81.9
2024-04-22T05:00:14.465Z,81.8
2024-04-22T05:01:21.000Z,81.7
2024-04-22T05:02:47.104Z,81.3
2024-04-22T05:04:03.047Z,81.1
2024-04-22T05:05:19.490Z,81.1
2024-04-22T05:06:26.000Z,81.1
2024-04-22T05:07:50.893Z,81.2
2024-04-22T05:08:57.000Z,81.2
2024-04-22T05:10:23.034Z,81.4
2024-04-22T05:11:39.228Z,81.2
2024-04-22T05:12:55.422Z,81.2
2024-04-22T05:14:11.616Z,81.4
2024-04-22T05:15:28.054Z,81
2024-04-22T05:16:44.003Z,80.9
2024-04-22T05:18:00.198Z,80.8
2024-04-22T05:19:16.391Z,80.8
2024-04-22T05:20:32.585Z,80.8
2024-04-22T05:21:48.779Z,81
2024-04-22T05:23:04.973Z,80.7
2024-04-22T05:24:20.184Z,80.7
2024-04-22T05:25:36.630Z,80.6
2024-04-22T05:26:52.571Z,80.6
2024-04-22T05:28:09.023Z,80.4
2024-04-22T05:29:24.959Z,80.5
2024-04-22T05:30:41.153Z,80.6
2024-04-22T05:31:57.346Z,80.9
2024-04-22T05:33:13.788Z,80.8
2024-04-22T05:34:29.735Z,80.9
2024-04-22T05:35:46.177Z,80.6
2024-04-22T05:37:02.123Z,80.5
2024-04-22T05:38:18.566Z,80.5
2024-04-22T05:39:34.511Z,80.5
2024-04-22T05:40:49.977Z,80.4
2024-04-22T05:42:05.915Z,80.5
2024-04-22T05:43:22.364Z,80.3
2024-04-22T05:44:38.302Z,80.1
2024-04-22T05:45:54.749Z,79.7
2024-04-22T05:47:10.690Z,79.8
2024-04-22T05:48:26.884Z,79.7
2024-04-22T05:49:33.000Z,79.7
2024-04-22T05:50:59.527Z,79.3
2024-04-22T05:52:15.466Z,78.9
2024-04-22T05:53:31.660Z,78.7
2024-04-22T05:54:47.854Z,78.9
2024-04-22T05:56:04.291Z,78.3
2024-04-22T05:57:10.000Z,78.5
2024-04-22T05:58:35.452Z,78.5
2024-04-22T05:59:51.645Z,78
2024-04-22T06:01:07.840Z,78.4
2024-04-22T06:02:14.000Z,78.3
2024-04-22T06:03:40.474Z,78
2024-04-22T06:04:56.421Z,77.7
2024-04-22T06:06:12.856Z,78.1
2024-04-22T06:07:28.810Z,78.2
2024-04-22T06:08:45.264Z,78.2
2024-04-22T06:10:01.198Z,77.8
2024-04-22T06:11:17.392Z,77.9
2024-04-22T06:12:33.586Z,77.7
2024-04-22T06:13:48.796Z,78.1
2024-04-22T06:15:04.990Z,77.9
2024-04-22T06:16:21.434Z,77.1
2024-04-22T06:17:37.378Z,77.6
2024-04-22T06:18:44.000Z,77.9
2024-04-22T06:20:09.766Z,77.1
2024-04-22T06:21:26.203Z,77.3
2024-04-22T06:22:42.154Z,77.1
2024-04-22T06:23:58.598Z,77.3
2024-04-22T06:25:14.542Z,77.5
2024-04-22T06:26:30.736Z,77.9
2024-04-22T06:27:46.930Z,78.3
2024-04-22T06:29:03.372Z,77.9
2024-04-22T06:30:18.335Z,77.5
2024-04-22T06:31:25.000Z,77.2
2024-04-22T06:32:50.722Z,77.1
2024-04-22T06:34:07.155Z,76.7
2024-04-22T06:35:23.110Z,76.7
2024-04-22T06:36:39.553Z,75.8
2024-04-22T06:37:55.498Z,75.2
2024-04-22T06:39:11.937Z,74.3
2024-04-22T06:40:27.886Z,75
2024-04-22T06:41:44.325Z,74.7
2024-04-22T06:43:00.274Z,74.8
2024-04-22T06:44:16.717Z,73.3
2024-04-22T06:45:32.661Z,73.9
2024-04-22T06:46:48.117Z,73.8
2024-04-22T06:48:04.065Z,73
2024-04-22T06:49:20.514Z,72.5
2024-04-22T06:50:36.453Z,73.5
2024-04-22T06:51:52.647Z,73.9
2024-04-22T06:53:08.840Z,73.5
2024-04-22T06:54:25.276Z,74
2024-04-22T06:55:41.228Z,74
2024-04-22T06:56:57.422Z,74.1
2024-04-22T06:58:13.615Z,74.4
2024-04-22T06:59:30.060Z,74.9
2024-04-22T07:00:46.002Z,73.8
2024-04-22T07:02:02.196Z,73.5
2024-04-22T07:03:17.407Z,73.4
2024-04-22T07:04:33.841Z,72.9
2024-04-22T07:05:49.793Z,73
2024-04-22T07:07:05.987Z,73.5
2024-04-22T07:08:22.180Z,73
2024-04-22T07:09:38.374Z,73.5
2024-04-22T07:10:54.568Z,73.2
2024-04-22T07:12:11.011Z,73.7
2024-04-22T07:13:26.956Z,73.5
2024-04-22T07:14:43.150Z,73.4
2024-04-22T07:15:59.343Z,73.4
2024-04-22T07:17:15.537Z,73.3
2024-04-22T07:18:31.730Z,72.2
2024-04-22T07:19:46.940Z,71.8
2024-04-22T07:21:03.134Z,72.4
2024-04-22T07:22:10.000Z,72.8
2024-04-22T07:23:35.521Z,72.9
2024-04-22T07:24:51.966Z,72.8
2024-04-22T07:26:07.908Z,72
2024-04-22T07:27:24.102Z,71.6
2024-04-22T07:28:40.295Z,72
2024-04-22T07:29:56.489Z,71.8
2024-04-22T07:31:12.682Z,71.3
2024-04-22T07:32:29.126Z,72
2024-04-22T07:33:45.338Z,72.1
2024-04-22T07:35:01.264Z,72.7
2024-04-22T07:36:16.474Z,70.7
2024-04-22T07:37:32.915Z,72.5
2024-04-22T07:38:48.860Z,73.2
2024-04-22T07:40:05.054Z,73
2024-04-22T07:41:21.247Z,72.9
2024-04-22T07:42:37.698Z,72.2
2024-04-22T07:43:53.634Z,73.3
2024-04-22T07:45:10.083Z,73.4
2024-04-22T07:46:26.023Z,72
2024-04-22T07:47:42.216Z,72.4
2024-04-22T07:48:58.410Z,71.8
2024-04-22T07:50:14.858Z,71.3
2024-04-22T07:51:30.797Z,71.5
2024-04-22T07:52:46.257Z,70.8
2024-04-22T07:54:02.201Z,70.8
2024-04-22T07:55:18.637Z,70.1
2024-04-22T07:56:34.588Z,71.7
2024-04-22T07:57:50.782Z,71.9
2024-04-22T07:59:06.975Z,71
2024-04-22T08:00:23.169Z,71.5
2024-04-22T08:01:39.363Z,71.4
2024-04-22T08:02:55.802Z,71.2
2024-04-22T08:04:11.750Z,71.2
2024-04-22T08:05:28.189Z,71.3
2024-04-22T08:06:44.137Z,70.1
2024-04-22T08:08:00.331Z,69.9
2024-04-22T08:09:15.542Z,71
2024-04-22T08:10:31.671Z,71.1
2024-04-22T08:11:47.878Z,70.8
2024-04-22T08:13:04.122Z,70.1
2024-04-22T08:14:20.315Z,69.9
2024-04-22T08:15:36.458Z,70.7
2024-04-22T08:16:52.702Z,70.3
2024-04-22T08:18:09.143Z,70.5
2024-04-22T08:19:25.091Z,70.1
2024-04-22T08:20:41.285Z,70
2024-04-22T08:21:57.478Z,70.3
2024-04-22T08:23:13.672Z,70.7
2024-04-22T08:24:29.865Z,69.8
2024-04-22T08:25:45.325Z,69.6
2024-04-22T08:27:01.269Z,68.8
2024-04-22T08:28:17.707Z,69.3
2024-04-22T08:29:33.656Z,67.8
2024-04-22T08:30:49.850Z,67.6
2024-04-22T08:32:06.296Z,68.2
2024-04-22T08:33:22.237Z,67.5
2024-04-22T08:34:38.430Z,68.8
2024-04-22T08:35:54.525Z,67
2024-04-22T08:37:10.817Z,65.6
2024-04-22T08:38:27.011Z,66
2024-04-22T08:39:43.205Z,66
2024-04-22T08:40:59.647Z,64
2024-04-22T08:42:14.609Z,63.7
2024-04-22T08:43:30.802Z,63
2024-04-22T08:44:46.995Z,64.3
2024-04-22T08:46:03.189Z,63.6
2024-04-22T08:47:19.383Z,64.2
2024-04-22T08:48:35.499Z,64.7
2024-04-22T08:49:50.792Z,63.4
2024-04-22T08:51:06.986Z,64
2024-04-22T08:52:23.179Z,65.3
2024-04-22T08:53:39.621Z,63.9
2024-04-22T08:54:55.567Z,64
2024-04-22T08:56:12.011Z,63.8
2024-04-22T08:57:27.954Z,64.5
2024-04-22T08:58:44.399Z,63.7
2024-04-22T09:00:00.341Z,61.5
2024-04-22T09:01:16.785Z,62.3
2024-04-22T09:02:32.728Z,61.2
2024-04-22T09:03:48.922Z,61.5
2024-04-22T09:05:05.116Z,62.3
2024-04-22T09:06:20.325Z,62
2024-04-22T09:07:27.000Z,61.9
2024-04-22T09:08:52.714Z,62.3
2024-04-22T09:10:08.907Z,60.6
2024-04-22T09:11:25.357Z,57.6
2024-04-22T09:12:41.295Z,60.9
2024-04-22T09:13:57.489Z,62.8
2024-04-22T09:15:13.683Z,62.3
2024-04-22T09:16:30.126Z,60.4
2024-04-22T09:17:46.070Z,59.6
2024-04-22T09:19:02.264Z,60.3
2024-04-22T09:20:18.705Z,59.1
2024-04-22T09:21:34.897Z,59.1
2024-04-22T09:22:49.862Z,60.4
2024-04-22T09:24:06.055Z,60.4
2024-04-22T09:25:22.248Z,59.5
2024-04-22T09:26:38.686Z,59.2
2024-04-22T09:27:54.636Z,58.8
2024-04-22T09:29:10.829Z,60.2
2024-04-22T09:30:27.023Z,60.6
2024-04-22T09:31:43.475Z,59
2024-04-22T09:32:59.410Z,62.1
2024-04-22T09:34:15.604Z,59.4
2024-04-22T09:35:31.797Z,58.2
2024-04-22T09:36:47.991Z,56.1
2024-04-22T09:38:04.185Z,55
2024-04-22T09:39:19.649Z,56.3
2024-04-22T09:40:35.589Z,56.1
2024-04-22T09:41:51.783Z,55.4
2024-04-22T09:43:07.976Z,54.7
2024-04-22T09:44:24.429Z,55.9
2024-04-22T09:45:30.000Z,54.5
2024-04-22T09:46:56.798Z,57
2024-04-22T09:48:12.752Z,54.7
2024-04-22T09:49:28.946Z,55.1
2024-04-22T09:50:45.139Z,54.2
2024-04-22T09:52:01.590Z,55.1
2024-04-22T09:53:17.527Z,51.8
2024-04-22T09:54:33.720Z,52.4
2024-04-22T09:55:48.931Z,51.4
2024-04-22T09:57:05.376Z,51.4
2024-04-22T09:58:21.317Z,51.6
2024-04-22T09:59:37.762Z,51.3
2024-04-22T10:00:44.000Z,51.9
2024-04-22T10:02:10.149Z,54
2024-04-22T10:03:26.091Z,51.9
2024-04-22T10:04:42.533Z,50
2024-04-22T10:05:58.479Z,51.2
2024-04-22T10:07:14.920Z,54.7
2024-04-22T10:08:31.118Z,53.5
2024-04-22T10:09:47.310Z,52.1
2024-04-22T10:11:03.253Z,52.8
2024-04-22T10:12:18.721Z,51.3
2024-04-22T10:13:34.656Z,55.6
2024-04-22T10:14:50.850Z,52.9
2024-04-22T10:16:07.298Z,54.5
2024-04-22T10:17:23.489Z,54.5
2024-04-22T10:18:39.430Z,55.3
2024-04-22T10:19:55.877Z,55.2
2024-04-22T10:21:11.818Z,54.5
2024-04-22T10:22:28.012Z,53.8
2024-04-22T10:23:44.205Z,56.3
2024-04-22T10:25:00.320Z,58.4
2024-04-22T10:26:16.592Z,55.1
2024-04-22T10:27:33.034Z,57.6
2024-04-22T10:28:47.996Z,59.8
2024-04-22T10:30:04.444Z,57.7
2024-04-22T10:31:20.383Z,58
2024-04-22T10:32:36.830Z,55.6
2024-04-22T10:33:52.697Z,53.4
2024-04-22T10:35:08.884Z,53.1
2024-04-22T10:36:15.000Z,54.7
2024-04-22T10:37:41.351Z,55.3
2024-04-22T10:38:57.544Z,52.9
2024-04-22T10:40:13.989Z,52.7
2024-04-22T10:41:29.931Z,51.7
2024-04-22T10:42:46.370Z,53
2024-04-22T10:44:02.318Z,51
2024-04-22T10:45:08.000Z,52.1
2024-04-22T10:46:33.967Z,52.7
2024-04-22T10:47:49.916Z,50.3
2024-04-22T10:49:06.109Z,50.1
2024-04-22T10:50:12.000Z,49.3
2024-04-22T10:51:38.496Z,49
2024-04-22T10:52:54.690Z,50
2024-04-22T10:54:10.884Z,49.1
2024-04-22T10:55:27.328Z,46.7
2024-04-22T10:56:43.272Z,46.3
2024-04-22T10:57:59.465Z,48.1
2024-04-22T10:59:15.911Z,48.3
2024-04-22T11:00:32.109Z,47
2024-04-22T11:01:47.062Z,48.8
2024-04-22T11:03:03.255Z,45
2024-04-22T11:04:19.449Z,45.9
2024-04-22T11:05:35.642Z,43.4
2024-04-22T11:06:51.836Z,42.8
2024-04-22T11:08:08.029Z,42.9
2024-04-22T11:09:24.223Z,43.1
2024-04-22T11:10:40.667Z,42.1
2024-04-22T11:11:56.610Z,42.9
2024-04-22T11:13:12.803Z,45.9
2024-04-22T11:14:28.997Z,43.2
2024-04-22T11:15:45.101Z,46.5
2024-04-22T11:17:01.384Z,44.3
2024-04-22T11:18:16.593Z,44.9
2024-04-22T11:19:32.788Z,46
2024-04-22T11:20:49.232Z,46.6
2024-04-22T11:22:05.175Z,46
2024-04-22T11:23:11.000Z,47.4
2024-04-22T11:24:37.562Z,48
2024-04-22T11:25:54.005Z,46.5
2024-04-22T11:27:09.950Z,45.1
2024-04-22T11:28:26.398Z,44.5
2024-04-22T11:29:42.299Z,45.8
2024-04-22T11:30:58.531Z,45.4
2024-04-22T11:32:05.000Z,47.5
2024-04-22T11:33:30.918Z,45
2024-04-22T11:34:46.128Z,45
2024-04-22T11:36:02.321Z,45.4
2024-04-22T11:37:18.514Z,45.9
2024-04-22T11:38:34.708Z,45.5
2024-04-22T11:39:50.900Z,46
2024-04-22T11:41:07.338Z,47
2024-04-22T11:42:23.287Z,48
2024-04-22T11:43:39.738Z,47.6
2024-04-22T11:44:55.625Z,50.3
2024-04-22T11:46:11.819Z,46.8
2024-04-22T11:47:28.066Z,47.2
2024-04-22T11:48:44.210Z,48.1
2024-04-22T11:50:00.456Z,46.9
2024-04-22T11:51:15.920Z,47.5
2024-04-22T11:52:31.811Z,45.7
2024-04-22T11:53:48.056Z,47.2
2024-04-22T11:55:04.251Z,45.2
2024-04-22T11:56:20.691Z,45.5
2024-04-22T11:57:36.640Z,43
2024-04-22T11:58:53.082Z,43.9
2024-04-22T11:59:59.000Z,44.9
2024-04-22T12:01:25.224Z,43.1
2024-04-22T12:02:41.420Z,42.2
2024-04-22T12:03:57.614Z,47.8
2024-04-22T12:05:13.810Z,43.3
2024-04-22T12:06:30.258Z,42.7
2024-04-22T12:07:45.216Z,42.8
2024-04-22T12:09:01.411Z,43.9
2024-04-22T12:10:08.000Z,43.5
2024-04-22T12:11:33.802Z,42.8
2024-04-22T12:12:49.998Z,45.1
2024-04-22T12:14:06.193Z,47.4
2024-04-22T12:15:22.388Z,49
2024-04-22T12:16:38.839Z,49.3
2024-04-22T12:17:54.779Z,50.6
2024-04-22T12:19:10.975Z,50.4
2024-04-22T12:20:27.170Z,49.1
2024-04-22T12:21:43.366Z,48.7
2024-04-22T12:22:59.817Z,47.3
2024-04-22T12:24:14.773Z,49
2024-04-22T12:25:30.968Z,50.5
2024-04-22T12:26:47.163Z,49.1
2024-04-22T12:28:03.359Z,50.3
2024-04-22T12:29:19.808Z,50.5
2024-04-22T12:30:35.750Z,51.9
2024-04-22T12:31:52.204Z,51.9
2024-04-22T12:33:07.716Z,50.2
2024-04-22T12:34:24.336Z,50.7
2024-04-22T12:35:40.532Z,54
2024-04-22T12:36:56.310Z,50.5
2024-04-22T12:38:03.000Z,50.9
2024-04-22T12:39:29.118Z,50.7
2024-04-22T12:40:34.000Z,49.7
2024-04-22T12:42:00.767Z,48.6
2024-04-22T12:43:16.720Z,47.3
2024-04-22T12:44:33.159Z,49.2
2024-04-22T12:45:49.111Z,48.5
2024-04-22T12:47:05.306Z,47.9
2024-04-22T12:48:21.502Z,48.4
2024-04-22T12:49:37.584Z,48.5
2024-04-22T12:50:53.893Z,48.6
2024-04-22T12:52:10.088Z,47.9
2024-04-22T12:53:26.524Z,48
2024-04-22T12:54:42.728Z,47.2
2024-04-22T12:55:58.933Z,49.3
2024-04-22T12:57:14.130Z,48.6
2024-04-22T12:58:30.082Z,49.1
2024-04-22T12:59:46.277Z,49.4
2024-04-22T13:01:02.473Z,51.3
2024-04-22T13:02:18.668Z,50
2024-04-22T13:03:34.864Z,52.8
2024-04-22T13:04:40.000Z,50.8
2024-04-22T13:06:06.276Z,49.1
2024-04-22T13:07:22.471Z,51
2024-04-22T13:08:38.667Z,49.3
2024-04-22T13:09:54.862Z,50.4
2024-04-22T13:11:11.315Z,54.8
2024-04-22T13:12:27.253Z,49.9
2024-04-22T13:13:43.449Z,53
2024-04-22T13:14:59.895Z,50.8
2024-04-22T13:16:15.736Z,50
2024-04-22T13:17:32.281Z,49.6
2024-04-22T13:18:48.231Z,50.5
2024-04-22T13:20:04.316Z,51.8
2024-04-22T13:21:19.638Z,53.5
2024-04-22T13:22:36.078Z,52.8
2024-04-22T13:23:51.916Z,51.4
2024-04-22T13:25:08.471Z,52.5
2024-04-22T13:26:24.420Z,52.9
2024-04-22T13:27:40.615Z,53.2
2024-04-22T13:28:57.063Z,54.7
2024-04-22T13:30:13.256Z,54.6
2024-04-22T13:31:29.202Z,55.1
2024-04-22T13:32:45.646Z,55
2024-04-22T13:34:01.593Z,57.4
2024-04-22T13:35:17.788Z,60.4
2024-04-22T13:36:34.228Z,64.5
2024-04-22T13:37:49.196Z,71.4
2024-04-22T13:39:05.392Z,77.1
2024-04-22T13:40:21.587Z,82.6
2024-04-22T13:41:37.783Z,86.5
2024-04-22T13:42:54.224Z,87.3
2024-04-22T13:44:10.174Z,89.3
2024-04-22T13:45:26.616Z,90.6
2024-04-22T13:46:42.566Z,91.8
2024-04-22T13:47:58.761Z,92.1
2024-04-22T13:49:15.201Z,91.8
2024-04-22T13:50:31.415Z,92.7
2024-04-22T13:51:47.348Z,92.5
2024-04-22T13:53:03.795Z,92.2
2024-04-22T13:54:18.755Z,91.2
2024-04-22T13:55:34.950Z,92.9
2024-04-22T13:56:51.146Z,92.7
2024-04-22T13:58:07.341Z,92.8
2024-04-22T13:59:23.537Z,93.2
2024-04-22T14:00:39.983Z,92.5
2024-04-22T14:01:55.928Z,92.2
2024-04-22T14:03:12.124Z,91.7
2024-04-22T14:04:28.320Z,91.7
2024-04-22T14:05:44.766Z,91.8
2024-04-22T14:07:00.968Z,90.2
2024-04-22T14:08:07.000Z,91.5
2024-04-22T14:09:33.349Z,92.4
2024-04-22T14:10:48.562Z,91.4
2024-04-22T14:12:04.761Z,91.4
2024-04-22T14:13:20.956Z,91
2024-04-22T14:14:37.154Z,89.1
2024-04-22T14:15:53.096Z,89.8
2024-04-22T14:17:09.542Z,88.1
2024-04-22T14:18:25.740Z,89.2
2024-04-22T14:19:41.683Z,88.1
2024-04-22T14:20:58.132Z,87.9
2024-04-22T14:22:14.074Z,87.6
2024-04-22T14:23:30.270Z,88.4
2024-04-22T14:24:46.466Z,87.5
2024-04-22T14:26:02.916Z,87.5
2024-04-22T14:27:18.116Z,84.1
2024-04-22T14:28:34.317Z,83.8
2024-04-22T14:29:50.263Z,85.4
2024-04-22T14:31:06.699Z,85
2024-04-22T14:32:22.901Z,85.3
2024-04-22T14:33:39.108Z,84.4
2024-04-22T14:34:55.296Z,85
2024-04-22T14:36:11.489Z,85.5
2024-04-22T14:37:27.437Z,85.1
2024-04-22T14:38:43.878Z,84.8
2024-04-22T14:39:59.828Z,85.1
2024-04-22T14:41:16.024Z,85.7
2024-04-22T14:42:22.000Z,85.4
2024-04-22T14:43:47.690Z,82.4
2024-04-22T14:45:03.627Z,84.2
2024-04-22T14:46:20.072Z,85
2024-04-22T14:47:36.267Z,85.4
2024-04-22T14:48:52.214Z,84.9
2024-04-22T14:50:08.660Z,84.2
2024-04-22T14:51:24.855Z,84.8
2024-04-22T14:52:40.801Z,84.6
2024-04-22T14:53:57.245Z,83.8
2024-04-22T14:55:13.436Z,82.7
2024-04-22T14:56:29.312Z,81.5
2024-04-22T14:57:36.000Z,81.2
2024-04-22T14:59:02.034Z,82
2024-04-22T15:00:17.240Z,81
2024-04-22T15:01:33.186Z,81.6
2024-04-22T15:02:49.315Z,81.1
2024-04-22T15:04:05.828Z,79
2024-04-22T15:05:21.774Z,75.9
2024-04-22T15:06:37.969Z,78.7
2024-04-22T15:07:54.165Z,78
2024-04-22T15:09:10.605Z,78.8
2024-04-22T15:10:26.805Z,79.5
2024-04-22T15:11:33.000Z,77.5
2024-04-22T15:12:59.195Z,78.8
2024-04-22T15:14:05.000Z,79.3
2024-04-22T15:15:31.339Z,77.2
2024-04-22T15:16:46.550Z,76.6
2024-04-22T15:17:53.000Z,78
2024-04-22T15:19:09.000Z,78.7
2024-04-22T15:20:25.000Z,79
2024-04-22T15:21:51.578Z,78.5
2024-04-22T15:23:07.529Z,79.3
2024-04-22T15:24:23.967Z,79.9
2024-04-22T15:25:40.173Z,78.5
2024-04-22T15:26:46.000Z,78.5
2024-04-22T15:28:02.000Z,74.3
2024-04-22T15:29:28.760Z,76
2024-04-22T15:30:44.702Z,75.8
2024-04-22T15:32:00.812Z,75.1
2024-04-22T15:33:16.110Z,75.7
2024-04-22T15:34:32.304Z,76.9
2024-04-22T15:35:38.000Z,76.1
2024-04-22T15:37:04.939Z,74.6
2024-04-22T15:38:20.891Z,74.3
2024-04-22T15:39:37.087Z,72.9
2024-04-22T15:40:53.203Z,69.1
2024-04-22T15:42:09.727Z,71.5
2024-04-22T15:43:16.000Z,70.5
2024-04-22T15:44:42.122Z,69.4
2024-04-22T15:45:58.065Z,72.9
2024-04-22T15:47:14.520Z,74
2024-04-22T15:48:20.000Z,74.6
2024-04-22T15:49:45.921Z,71.9
2024-04-22T15:51:01.864Z,70.6
2024-04-22T15:52:18.314Z,72.8
2024-04-22T15:53:34.255Z,75.9
2024-04-22T15:54:50.711Z,74.2
2024-04-22T15:56:06.646Z,72.1
2024-04-22T15:57:22.842Z,75
2024-04-22T15:58:39.281Z,68
2024-04-22T15:59:45.000Z,66.5
2024-04-22T16:01:11.429Z,69.9
2024-04-22T16:02:27.624Z,68.5
2024-04-22T16:03:44.075Z,69.5
2024-04-22T16:04:59.925Z,67.6
2024-04-22T16:06:15.137Z,68.1
2024-04-22T16:07:31.337Z,66.6
2024-04-22T16:08:47.619Z,68.1
2024-04-22T16:10:03.814Z,64.1
2024-04-22T16:11:20.010Z,65.5
2024-04-22T16:12:36.461Z,65.4
2024-04-22T16:13:52.320Z,66.9
2024-04-22T16:15:08.844Z,63.4
2024-04-22T16:16:24.709Z,68.2
2024-04-22T16:17:40.903Z,66.1
2024-04-22T16:18:57.184Z,67.3
2024-04-22T16:20:13.291Z,67.9
2024-04-22T16:21:29.575Z,64
2024-04-22T16:22:45.027Z,66.3
2024-04-22T16:24:00.983Z,66.6
2024-04-22T16:25:17.090Z,67.4
2024-04-22T16:26:33.292Z,66.4
2024-04-22T16:27:39.000Z,70.9
2024-04-22T16:29:05.674Z,69.3
2024-04-22T16:30:22.211Z,71.6
2024-04-22T16:31:28.000Z,65.9
2024-04-22T16:32:54.280Z,66.3
2024-04-22T16:34:10.458Z,67.3
2024-04-22T16:35:26.743Z,66.8
2024-04-22T16:36:33.000Z,68
2024-04-22T16:37:59.382Z,67.7
2024-04-22T16:39:14.347Z,67.9
2024-04-22T16:40:30.543Z,65.6
2024-04-22T16:41:46.656Z,65.4
2024-04-22T16:43:02.934Z,66.2
2024-04-22T16:44:19.130Z,68
2024-04-22T16:45:35.325Z,65.2
2024-04-22T16:46:51.766Z,68.5
2024-04-22T16:48:07.716Z,67.2
2024-04-22T16:49:23.830Z,67.5
2024-04-22T16:50:40.021Z,67.6
2024-04-22T16:51:56.213Z,67.4
2024-04-22T16:53:02.000Z,69.3
2024-04-22T16:54:28.695Z,66.9
2024-04-22T16:55:43.826Z,68.9
2024-04-22T16:57:00.102Z,68.7
2024-04-22T16:58:16.297Z,66.3
2024-04-22T16:59:32.493Z,66.6
2024-04-22T17:00:48.946Z,66.1
2024-04-22T17:02:04.885Z,66.8
2024-04-22T17:03:21.080Z,69.3